createdAt,value
2023-05-03T00:02:17.385Z,6.00
2023-05-03T00:05:46.685Z,6.70
2023-05-03T00:09:02.880Z,6.00
2023-05-03T00:12:27.789Z,5.80
2023-05-03T00:15:46.020Z,6.20
2023-05-03T00:19:35.048Z,6.50
2023-05-03T00:22:40.435Z,6.30
2023-05-03T00:26:26.917Z,6.30
2023-05-03T00:30:10.065Z,5.60
2023-05-03T00:33:57.574Z,6.00
2023-05-03T00:37:38.703Z,6.20
2023-05-03T00:41:20.332Z,6.30
2023-05-03T00:44:55.738Z,6.30
2023-05-03T00:48:33.919Z,7.00
2023-05-03T00:52:14.505Z,6.60
2023-05-03T00:55:46.982Z,6.60
2023-05-03T00:59:17.910Z,6.90
2023-05-03T01:02:56.292Z,6.60
2023-05-03T01:06:32.227Z,7.00
2023-05-03T01:10:16.143Z,6.40
2023-05-03T01:14:14.151Z,6.90
2023-05-03T01:18:03.114Z,6.70
2023-05-03T01:21:53.878Z,6.60
2023-05-03T01:25:23.676Z,6.40
2023-05-03T01:28:41.101Z,6.70
2023-05-03T01:32:14.505Z,6.20
2023-05-03T01:36:09.038Z,6.30
2023-05-03T01:40:00.887Z,5.90
2023-05-03T01:43:43.564Z,6.20
2023-05-03T01:47:32.609Z,6.50
2023-05-03T01:51:03.434Z,6.30
2023-05-03T01:54:38.915Z,6.00
2023-05-03T01:58:28.004Z,6.70
2023-05-03T02:02:06.040Z,6.30
2023-05-03T02:05:23.830Z,6.40
2023-05-03T02:09:12.839Z,6.20
2023-05-03T02:12:51.596Z,6.50
2023-05-03T02:16:31.408Z,5.90
2023-05-03T02:19:34.438Z,6.30
2023-05-03T02:22:57.249Z,6.20
2023-05-03T02:26:36.449Z,6.50
2023-05-03T02:30:25.356Z,6.20
2023-05-03T02:33:56.524Z,6.70
2023-05-03T02:37:43.457Z,6.20
2023-05-03T02:41:01.778Z,6.90
2023-05-03T02:44:43.461Z,7.10
2023-05-03T02:48:32.343Z,6.40
2023-05-03T02:51:41.901Z,6.40
2023-05-03T02:54:49.503Z,6.30
2023-05-03T02:57:56.986Z,7.20
2023-05-03T03:01:14.628Z,6.90
2023-05-03T03:04:52.526Z,6.50
2023-05-03T03:07:52.805Z,6.60
2023-05-03T03:11:25.299Z,7.10
2023-05-03T03:14:47.173Z,6.70
2023-05-03T03:17:45.660Z,6.70
2023-05-03T03:21:00.316Z,6.80
2023-05-03T03:24:49.295Z,6.70
2023-05-03T03:28:20.191Z,6.70
2023-05-03T03:31:36.954Z,6.80
2023-05-03T03:35:08.525Z,6.80
2023-05-03T03:38:28.087Z,7.10
2023-05-03T03:42:10.026Z,7.40
2023-05-03T03:45:48.713Z,7.50
2023-05-03T03:49:22.162Z,6.60
2023-05-03T03:52:36.964Z,7.30
2023-05-03T03:56:07.296Z,7.10
2023-05-03T03:59:24.814Z,6.80
2023-05-03T04:02:47.296Z,6.90
2023-05-03T04:06:19.610Z,7.70
2023-05-03T04:10:01.782Z,7.00
2023-05-03T04:13:50.998Z,6.70
2023-05-03T04:17:39.886Z,6.60
2023-05-03T04:21:28.758Z,7.50
2023-05-03T04:24:44.679Z,7.20
2023-05-03T04:28:23.388Z,6.80
2023-05-03T04:32:04.586Z,7.30
2023-05-03T04:35:40.974Z,7.80
2023-05-03T04:39:23.554Z,6.60
2023-05-03T04:43:10.816Z,6.70
2023-05-03T04:46:59.686Z,7.20
2023-05-03T04:50:37.859Z,7.30
2023-05-03T04:54:10.240Z,6.90
2023-05-03T04:57:40.957Z,6.80
2023-05-03T05:01:30.006Z,6.70
2023-05-03T05:04:58.821Z,6.70
2023-05-03T05:08:46.248Z,7.20
2023-05-03T05:12:35.069Z,7.10
2023-05-03T05:16:23.884Z,7.20
2023-05-03T05:20:12.719Z,5.90
2023-05-03T05:23:54.473Z,6.30
2023-05-03T05:27:29.392Z,6.40
2023-05-03T05:30:51.673Z,6.50
2023-05-03T05:34:14.739Z,5.70
2023-05-03T05:37:56.633Z,5.80
2023-05-03T05:41:32.186Z,5.40
2023-05-03T05:45:21.339Z,7.00
2023-05-03T05:48:48.875Z,5.90
2023-05-03T05:52:05.190Z,5.90
2023-05-03T05:55:41.862Z,6.30
2023-05-03T05:59:00.918Z,5.50
2023-05-03T06:02:18.638Z,5.70
2023-05-03T06:05:57.439Z,4.90
2023-05-03T06:09:30.832Z,6.20
2023-05-03T06:13:20.916Z,5.70
2023-05-03T06:16:49.567Z,5.60
2023-05-03T06:19:49.813Z,4.90
2023-05-03T06:23:10.462Z,5.40
2023-05-03T06:26:52.467Z,4.80
2023-05-03T06:30:34.030Z,5.10
2023-05-03T06:34:10.411Z,5.30
2023-05-03T06:37:46.383Z,5.50
2023-05-03T06:41:28.529Z,4.60
2023-05-03T06:45:11.930Z,4.60
2023-05-03T06:48:20.903Z,4.20
2023-05-03T06:51:38.372Z,5.80
2023-05-03T06:54:42.615Z,5.60
2023-05-03T06:58:21.875Z,6.00
2023-05-03T07:01:23.938Z,4.30
2023-05-03T07:04:38.227Z,5.50
2023-05-03T07:08:07.129Z,5.40
2023-05-03T07:11:34.899Z,5.40
2023-05-03T07:15:22.218Z,4.60
2023-05-03T07:19:11.378Z,3.10
2023-05-03T07:22:51.415Z,4.10
2023-05-03T07:26:29.418Z,3.60
2023-05-03T07:30:11.211Z,3.60
2023-05-03T07:33:59.747Z,3.30
2023-05-03T07:37:27.884Z,3.00
2023-05-03T07:41:16.895Z,4.10
2023-05-03T07:44:57.573Z,3.50
2023-05-03T07:48:47.035Z,2.40
2023-05-03T07:52:21.055Z,3.20
2023-05-03T07:56:00.079Z,3.30
2023-05-03T07:59:49.380Z,2.80
2023-05-03T08:03:24.527Z,2.60
2023-05-03T08:06:45.932Z,2.50
2023-05-03T08:10:35.120Z,2.90
2023-05-03T08:14:26.616Z,2.80
2023-05-03T08:18:23.927Z,3.30
2023-05-03T08:22:13.371Z,3.20
2023-05-03T08:26:00.914Z,3.00
2023-05-03T08:29:42.608Z,2.60
2023-05-03T08:33:21.575Z,3.20
2023-05-03T08:37:12.237Z,3.10
2023-05-03T08:40:49.178Z,3.30
2023-05-03T08:44:10.432Z,6.00
2023-05-03T08:47:39.710Z,4.30
2023-05-03T08:50:43.231Z,6.80
2023-05-03T08:54:26.105Z,3.10
2023-05-03T08:58:15.304Z,2.60
2023-05-03T09:01:44.937Z,2.80
2023-05-03T09:05:16.664Z,2.80
2023-05-03T09:11:55.711Z,2.90
2023-05-03T09:15:38.790Z,2.70
2023-05-03T09:19:28.039Z,2.40
2023-05-03T09:23:17.729Z,2.80
2023-05-03T09:27:09.933Z,2.80
2023-05-03T09:30:58.615Z,2.70
2023-05-03T09:34:56.689Z,2.40
2023-05-03T09:38:45.799Z,2.30
2023-05-03T09:42:27.711Z,2.40
2023-05-03T09:46:10.369Z,2.20
2023-05-03T09:49:52.025Z,2.40
2023-05-03T09:52:33.248Z,2.70
2023-05-03T09:56:02.191Z,2.60
2023-05-03T09:59:32.164Z,2.70
2023-05-03T10:03:12.370Z,2.60
2023-05-03T10:06:56.878Z,2.70
2023-05-03T10:10:34.702Z,2.60
2023-05-03T10:14:24.206Z,2.60
2023-05-03T10:18:13.834Z,2.70
2023-05-03T10:22:05.931Z,2.80
2023-05-03T10:25:58.222Z,2.30
2023-05-03T10:29:46.306Z,2.50
2023-05-03T10:33:33.797Z,2.10
2023-05-03T10:37:13.648Z,2.60
2023-05-03T10:41:25.315Z,2.60
2023-05-03T10:45:14.865Z,2.40
2023-05-03T10:49:11.876Z,2.30
2023-05-03T10:53:15.740Z,2.30
2023-05-03T10:57:13.383Z,2.30
2023-05-03T11:00:51.387Z,2.30
2023-05-03T11:04:43.406Z,1.90
2023-05-03T11:08:00.613Z,2.70
2023-05-03T11:11:12.843Z,2.80
2023-05-03T11:14:54.823Z,2.80
2023-05-03T11:18:09.491Z,2.70
2023-05-03T11:21:23.980Z,2.70
2023-05-03T11:25:05.644Z,3.00
2023-05-03T11:28:54.741Z,3.00
2023-05-03T11:32:37.066Z,2.80
2023-05-03T11:36:16.688Z,2.50
2023-05-03T11:39:59.487Z,2.40
2023-05-03T11:44:00.427Z,2.30
2023-05-03T11:47:50.095Z,2.50
2023-05-03T11:51:15.658Z,2.40
2023-05-03T11:55:03.493Z,2.30
2023-05-03T11:58:39.936Z,2.10
2023-05-03T12:01:55.739Z,2.80
2023-05-03T12:05:45.986Z,2.40
2023-05-03T12:09:26.017Z,2.20
2023-05-03T12:13:09.097Z,3.10
2023-05-03T12:17:00.483Z,2.30
2023-05-03T12:24:29.893Z,3.00
2023-05-03T12:32:03.719Z,3.20
2023-05-03T12:35:34.400Z,2.70
2023-05-03T12:39:16.310Z,3.10
2023-05-03T12:42:55.876Z,2.80
2023-05-03T12:46:45.342Z,2.90
2023-05-03T12:50:37.906Z,2.80
2023-05-03T12:54:25.328Z,2.40
2023-05-03T13:05:33.588Z,2.60
2023-05-03T13:09:04.177Z,2.30
2023-05-03T13:12:34.252Z,2.40
2023-05-03T13:16:16.114Z,2.60
2023-05-03T13:19:48.560Z,2.50
2023-05-03T13:23:03.282Z,2.20
2023-05-03T13:26:18.973Z,2.70
2023-05-03T13:30:00.895Z,1.80
2023-05-03T13:33:32.745Z,2.20
2023-05-03T13:37:09.896Z,2.00
2023-05-03T13:40:59.407Z,2.20
2023-05-03T13:44:23.960Z,1.70
2023-05-03T13:48:18.405Z,2.40
2023-05-03T13:51:52.489Z,2.20
2023-05-03T13:55:35.331Z,2.20
2023-05-03T13:58:57.249Z,2.50
2023-05-03T14:02:32.069Z,2.50
2023-05-03T14:06:04.408Z,2.50
2023-05-03T14:09:07.077Z,2.50
2023-05-03T14:12:39.121Z,2.40
2023-05-03T14:16:35.952Z,2.40
2023-05-03T14:20:29.658Z,2.40
2023-05-03T14:23:56.590Z,2.20
2023-05-03T14:27:38.598Z,2.40
2023-05-03T14:31:11.852Z,2.30
2023-05-03T14:35:01.675Z,2.40
2023-05-03T14:38:26.898Z,3.20
2023-05-03T14:42:02.424Z,7.00
2023-05-03T14:45:16.864Z,3.20
2023-05-03T14:48:59.315Z,2.10
2023-05-03T14:52:37.942Z,1.40
2023-05-03T14:56:27.210Z,2.00
2023-05-03T14:59:51.516Z,2.00
2023-05-03T15:03:22.218Z,2.30
2023-05-03T15:07:01.453Z,3.80
2023-05-03T15:10:43.573Z,2.70
2023-05-03T15:14:32.751Z,3.00
2023-05-03T15:18:12.604Z,3.40
2023-05-03T15:21:55.566Z,4.00
2023-05-03T15:25:30.344Z,4.50
2023-05-03T15:28:55.172Z,4.80
2023-05-03T15:32:35.499Z,6.80
2023-05-03T15:35:51.955Z,3.10
2023-05-03T15:39:24.928Z,2.60
2023-05-03T15:43:04.978Z,5.90
2023-05-03T15:46:18.608Z,71.20
2023-05-03T15:49:23.124Z,2.40
2023-05-03T15:53:12.042Z,3.10
2023-05-03T15:56:43.409Z,2.50
2023-05-03T16:00:22.447Z,3.00
2023-05-03T16:04:10.292Z,2.70
2023-05-03T16:07:49.200Z,4.80
2023-05-03T16:11:38.202Z,2.30
2023-05-03T16:15:14.882Z,2.40
2023-05-03T16:18:40.796Z,2.00
2023-05-03T16:22:22.396Z,2.30
2023-05-03T16:25:51.596Z,2.70
2023-05-03T16:29:40.742Z,2.30
2023-05-03T16:33:12.067Z,2.00
2023-05-03T16:36:45.292Z,2.50
2023-05-03T16:40:21.525Z,2.30
2023-05-03T16:43:24.422Z,2.70
2023-05-03T16:47:07.201Z,2.10
2023-05-03T16:50:56.579Z,2.70
2023-05-03T16:54:32.421Z,2.30
2023-05-03T16:57:47.525Z,2.10
2023-05-03T17:01:11.693Z,2.40
2023-05-03T17:05:01.243Z,2.50
2023-05-03T17:08:43.359Z,2.30
2023-05-03T17:12:12.544Z,2.20
2023-05-03T17:15:44.538Z,2.30
2023-05-03T17:18:58.879Z,2.30
2023-05-03T17:22:41.316Z,2.10
2023-05-03T17:26:30.627Z,2.30
2023-05-03T17:30:21.131Z,1.90
2023-05-03T17:33:49.369Z,2.30
2023-05-03T17:37:25.540Z,1.80
2023-05-03T17:40:45.106Z,2.00
2023-05-03T17:44:32.657Z,2.50
2023-05-03T17:47:40.251Z,2.10
2023-05-03T17:51:31.714Z,3.00
2023-05-03T17:55:11.100Z,4.60
2023-05-03T17:58:52.278Z,11.70
2023-05-03T18:02:23.064Z,3.80
2023-05-03T18:05:57.921Z,5.90
2023-05-03T18:09:48.320Z,7.70
2023-05-03T18:13:09.582Z,6.60
2023-05-03T18:16:46.122Z,19.00
2023-05-03T18:20:19.585Z,15.60
2023-05-03T18:23:22.698Z,11.10
2023-05-03T18:26:48.052Z,12.20
2023-05-03T18:30:27.181Z,11.50
2023-05-03T18:33:42.303Z,18.00
2023-05-03T18:37:18.697Z,9.40
2023-05-03T18:40:47.239Z,10.40
2023-05-03T18:44:15.993Z,10.00
2023-05-03T18:47:29.338Z,11.20
2023-05-03T18:51:02.797Z,10.70
2023-05-03T18:54:29.159Z,14.00
2023-05-03T18:57:33.138Z,15.70
2023-05-03T19:00:52.204Z,19.00
2023-05-03T19:04:06.637Z,20.20
2023-05-03T19:07:23.576Z,23.80
2023-05-03T19:10:39.940Z,29.30
2023-05-03T19:14:20.275Z,35.20
2023-05-03T19:17:29.503Z,36.40
2023-05-03T19:20:23.745Z,39.40
2023-05-03T19:23:29.969Z,44.20
2023-05-03T19:26:52.518Z,36.30
2023-05-03T19:30:19.651Z,50.00
2023-05-03T19:33:32.829Z,56.20
2023-05-03T19:36:33.876Z,31.00
2023-05-03T19:39:49.715Z,30.90
2023-05-03T19:43:11.449Z,30.10
2023-05-03T19:46:02.190Z,27.40
2023-05-03T19:49:42.235Z,27.40
2023-05-03T19:52:46.905Z,25.90
2023-05-03T19:55:59.723Z,29.10
2023-05-03T19:59:09.368Z,33.50
2023-05-03T20:03:04.146Z,25.80
2023-05-03T20:06:17.830Z,31.20
2023-05-03T20:09:38.700Z,29.30
2023-05-03T20:13:08.712Z,26.90
2023-05-03T20:16:34.276Z,31.70
2023-05-03T20:20:17.665Z,28.10
2023-05-03T20:24:07.445Z,23.90
2023-05-03T20:27:22.866Z,20.00
2023-05-03T20:30:40.293Z,21.30
2023-05-03T20:34:13.705Z,25.10
2023-05-03T20:37:26.447Z,29.00
2023-05-03T20:41:16.448Z,33.10
2023-05-03T20:44:42.646Z,41.40
2023-05-03T20:48:23.706Z,39.40
2023-05-03T20:52:07.231Z,35.80
2023-05-03T20:54:49.154Z,32.20
2023-05-03T20:58:19.368Z,36.80
2023-05-03T21:01:26.854Z,32.10
2023-05-03T21:04:40.943Z,29.60
2023-05-03T21:08:15.027Z,28.40
2023-05-03T21:11:53.555Z,29.30
2023-05-03T21:14:51.453Z,35.00
2023-05-03T21:18:17.856Z,27.20
2023-05-03T21:21:22.351Z,28.60
2023-05-03T21:24:42.720Z,23.80
2023-05-03T21:27:58.513Z,29.60
2023-05-03T21:31:22.716Z,29.70
2023-05-03T21:34:54.403Z,29.00
2023-05-03T21:38:37.115Z,27.30
2023-05-03T21:42:06.908Z,25.30
2023-05-03T21:45:00.009Z,21.20
2023-05-03T21:47:57.888Z,20.00
2023-05-03T21:50:53.755Z,27.10
2023-05-03T21:53:35.408Z,26.40
2023-05-03T21:56:21.942Z,26.20
2023-05-03T21:59:26.248Z,26.70
2023-05-03T22:02:34.497Z,29.50
2023-05-03T22:05:35.585Z,28.90
2023-05-03T22:09:24.475Z,28.30
2023-05-03T22:12:26.388Z,27.90
2023-05-03T22:15:14.480Z,27.60
2023-05-03T22:18:31.689Z,26.40
2023-05-03T22:21:56.714Z,24.80
2023-05-03T22:25:24.033Z,26.60
2023-05-03T22:29:12.992Z,24.80
2023-05-03T22:32:03.055Z,26.20
2023-05-03T22:35:14.529Z,25.80
2023-05-03T22:38:26.018Z,23.20
2023-05-03T22:41:23.730Z,25.70
2023-05-03T22:44:19.222Z,25.50
2023-05-03T22:47:38.254Z,26.90
2023-05-03T22:50:55.474Z,24.10
2023-05-03T22:54:01.988Z,24.70
2023-05-03T22:56:40.049Z,25.30
2023-05-03T22:59:44.712Z,24.50
2023-05-03T23:02:18.560Z,24.30
2023-05-03T23:06:00.526Z,25.50
2023-05-03T23:09:06.962Z,26.70
2023-05-03T23:12:30.749Z,26.70
2023-05-03T23:16:01.887Z,26.50
2023-05-03T23:19:08.456Z,26.10
2023-05-03T23:21:42.697Z,27.10
2023-05-03T23:24:57.514Z,27.00
2023-05-03T23:27:53.653Z,26.90
2023-05-03T23:31:34.815Z,26.60
2023-05-03T23:34:10.188Z,26.20
2023-05-03T23:37:00.784Z,26.10
2023-05-03T23:39:58.636Z,27.60
2023-05-03T23:42:33.339Z,28.20
2023-05-03T23:45:04.867Z,26.30
2023-05-03T23:48:07.234Z,25.50
2023-05-03T23:50:55.352Z,26.60
2023-05-03T23:54:43.876Z,26.30
2023-05-03T23:57:44.976Z,27.90
